Latest Coastal Weather Observations for Dum In Mirrie

IDD60701

Issued at 3:35 am CST Saturday 1 November 2014 (issued every 10 minutes, with the page automatically refreshed every 10 minutes)

About coastal observations | Map of coastal stations | Coastal observations for NT | Marine services | Other Formats
Station Details ID: 014277 Name: DUM IN MIRRIE AIRSTRIP Lat: -12.63 Lon: 130.37 Height: 3.5 m
Data from the previous 72 hours. | See also: Recent months at Dum In Mirrie
Date/Time
CST
Temp

°C
Wind Pressure Rain
since 9am
mm
Weather Cloud Vis
km
Sea
Height
m
Swell
Dir
 
Speed
knots
Gust
knots
hPa Trend Height
m
Period
s
Dir
01/03:30am 25.0 NW 0 1 1007.5 - 0.0 - - - - - - -
01/03:00am 25.3 CALM 0 1 1007.4 - 0.0 - - - - - - -
01/02:30am 25.9 WNW 1 3 1007.4 - 0.0 - - - - - - -
01/02:00am 27.4 W 2 4 1007.7 - 0.0 - - - - - - -
01/01:30am 27.8 W 2 5 1007.9 - 0.0 - - - - - - -
01/01:00am 28.0 W 3 6 1008.3 - 0.0 - - - - - - -
01/12:30am 27.9 W 3 6 1008.6 - 0.0 - - - - - - -
01/12:00am 28.0 WNW 3 5 1009.0 - 0.0 - - - - - - -
 
Date/Time
CST
Temp

°C
Wind Pressure Rain
since 9am
mm
Weather Cloud Vis
km
Sea
Height
m
Swell
Dir
 
Speed
knots
Gust
knots
hPa Trend Height
m
Period
s
Dir
31/11:30pm 28.0 WNW 3 6 1009.2 - 0.0 - - - - - - -
31/11:00pm 28.2 WNW 3 7 1009.4 - 0.0 - - - - - - -
31/10:30pm 28.1 WNW 3 5 1009.5 - 0.0 - - - - - - -
31/10:00pm 28.1 NW 3 5 1009.2 - 0.0 - - - - - - -
31/09:30pm 28.1 WNW 3 6 1009.1 - 0.0 - - - - - - -
31/09:00pm 28.3 NW 3 6 1009.0 - 0.0 - - - - - - -
31/08:30pm 28.3 NW 3 6 1008.8 - 0.0 - - - - - - -
31/08:00pm 28.3 NW 3 5 1008.6 - 0.0 - - - - - - -
31/07:30pm 28.6 NW 3 6 1008.4 - 0.0 - - - - - - -
31/07:00pm 28.7 WNW 3 7 1008.1 - 0.0 - - - - - - -
31/06:30pm 29.2 NW 4 7 1007.8 - 0.0 - - - - - - -
31/06:00pm 30.1 WNW 4 7 1007.5 - 0.0 - - - - - - -
31/05:30pm 31.0 WNW 5 8 1007.1 - 0.0 - - - - - - -
31/05:00pm 31.2 WNW 5 10 1007.1 - 0.0 - - - - - - -
31/04:30pm 31.6 WNW 6 10 1007.2 - 0.0 - - - - - - -
31/04:00pm 31.6 WNW 6 10 1007.4 - 0.0 - - - - - - -
31/03:30pm 31.4 NW 6 10 1007.8 - 0.0 - - - - - - -
31/03:00pm 31.6 NW 6 10 1008.1 - 0.0 - - - - - - -
31/02:30pm 31.5 NW 6 11 1008.4 - 0.0 - - - - - - -
31/02:00pm 31.6 WNW 6 11 1008.6 - 0.0 - - - - - - -
31/01:30pm 31.4 NW 6 10 1009.1 - 0.0 - - - - - - -
31/01:00pm 31.5 NNW 6 9 1009.5 - 0.0 - - - - - - -
31/12:30pm 31.2 NW 6 9 1010.0 - 0.0 - - - - - - -
31/12:00pm 31.1 NW 5 11 1010.5 - 0.0 - - - - - - -
31/11:30am 31.3 NW 6 10 1010.8 - 0.0 - - - - - - -
31/11:00am 30.7 NNW 6 8 1010.9 - 0.0 - - - - - - -
31/10:30am 31.8 N 5 8 1011.0 - 0.0 - - - - - - -
31/10:00am 30.9 NNW 5 9 1011.1 - 0.0 - - - - - - -
31/09:30am 30.5 N 5 9 1011.2 - 0.0 - - - - - - -
31/09:00am 30.0 N 4 7 1011.1 - 0.0 - - - - - - -
31/08:30am 29.7 NNW 3 5 1010.9 - 0.0 - - - - - - -
31/08:00am 29.1 N 3 5 1010.6 - 0.0 - - - - - - -
31/07:30am 28.1 NNW 1 2 1010.3 - 0.0 - - - - - - -
31/07:00am 24.5 N 1 2 1009.7 - 0.0 - - - - - - -
31/06:30am 22.9 N 2 2 1009.4 - 0.0 - - - - - - -
31/06:00am 23.3 N 1 2 1009.1 - 0.0 - - - - - - -
31/05:30am 23.5 CALM 0 2 1009.0 - 0.0 - - - - - - -
31/05:00am 23.8 NNW 2 4 1008.6 - 0.0 - - - - - - -
31/04:30am 24.0 NNW 2 3 1008.3 - 0.0 - - - - - - -
31/04:00am 24.6 NNW 1 2 1008.0 - 0.0 - - - - - - -
31/03:30am 25.8 NNW 2 3 1007.9 - 0.0 - - - - - - -
31/03:00am 26.4 NNW 2 3 1007.9 - 0.0 - - - - - - -
31/02:30am 26.8 NNW 2 5 1008.0 - 0.0 - - - - - - -
31/02:00am 27.1 NNW 2 4 1008.3 - 0.0 - - - - - - -
31/01:30am 27.5 NNW 3 6 1008.5 - 0.0 - - - - - - -
31/01:00am 27.6 NNW 3 6 1008.7 - 0.0 - - - - - - -
31/12:30am 27.7 NNW 4 6 1008.7 - 0.0 - - - - - - -
31/12:00am 27.9 WNW 3 6 1009.0 - 0.0 - - - - - - -
 
Date/Time
CST
Temp

°C
Wind Pressure Rain
since 9am
mm
Weather Cloud Vis
km
Sea
Height
m
Swell
Dir
 
Speed
knots
Gust
knots
hPa Trend Height
m
Period
s
Dir
30/11:30pm 28.1 WNW 3 7 1009.1 - 0.0 - - - - - - -
30/11:00pm 28.0 NW 4 7 1009.4 - 0.0 - - - - - - -
30/10:30pm 28.1 NW 4 8 1009.3 - 0.0 - - - - - - -
30/10:00pm 28.1 NW 4 7 1009.2 - 0.0 - - - - - - -
30/09:30pm 28.2 NW 4 7 1008.9 - 0.0 - - - - - - -
30/09:00pm 28.2 NW 4 7 1008.8 - 0.0 - - - - - - -
30/08:30pm 28.2 NW 4 8 1008.4 - 0.0 - - - - - - -
30/08:00pm 28.3 NNW 5 9 1008.1 - 0.0 - - - - - - -
30/07:30pm 28.4 NNW 5 7 1007.8 - 0.0 - - - - - - -
30/07:00pm 28.6 NNW 4 8 1007.6 - 0.0 - - - - - - -
30/06:30pm 29.1 NNW 6 10 1007.5 - 0.0 - - - - - - -
30/06:00pm 30.1 NNW 4 9 1007.4 - 0.0 - - - - - - -
30/05:30pm 30.4 NNW 7 11 1007.4 - 0.0 - - - - - - -
30/05:00pm 31.5 NW 6 9 1007.2 - 0.0 - - - - - - -
30/04:30pm 32.2 NW 5 8 1007.1 - 0.0 - - - - - - -
30/04:00pm 31.7 NW 6 11 1007.3 - 0.0 - - - - - - -
30/03:30pm 31.5 NW 6 10 1007.6 - 0.0 - - - - - - -
30/03:00pm 31.1 NW 6 11 1007.9 - 0.0 - - - - - - -
30/02:30pm 31.9 NNW 7 13 1008.2 - 0.0 - - - - - - -
30/02:00pm 31.8 N 9 14 1008.5 - 0.0 - - - - - - -
30/01:30pm 31.9 N 7 12 1009.0 - 0.0 - - - - - - -
30/01:00pm 30.6 N 9 14 1009.5 - 0.0 - - - - - - -
30/12:30pm 32.1 N 6 11 1009.9 - 0.0 - - - - - - -
30/12:00pm 31.0 N 7 13 1010.2 - 0.0 - - - - - - -
30/11:30am 30.7 NNW 6 10 1010.5 - 0.0 - - - - - - -
30/11:00am 31.1 N 6 10 1010.7 - 0.0 - - - - - - -
30/10:30am 31.1 N 6 9 1010.9 - 0.0 - - - - - - -
30/10:00am 29.7 NNW 6 10 1011.3 - 0.0 - - - - - - -
30/09:30am 30.6 N 5 9 1011.5 - 0.0 - - - - - - -
30/09:00am 30.2 N 4 9 1011.2 - 0.0 - - - - - - -
30/08:30am 30.0 NNE 4 7 1011.0 - 0.0 - - - - - - -
30/08:00am 29.3 NNE 2 4 1010.8 - 0.0 - - - - - - -
30/07:30am 28.2 NE 1 3 1010.5 - 0.0 - - - - - - -
30/07:00am 24.6 CALM 0 0 1010.3 - 0.0 - - - - - - -
30/06:30am 23.4 ENE 1 1 1009.9 - 0.0 - - - - - - -
30/06:00am 23.0 N 2 2 1009.4 - 0.0 - - - - - - -
30/05:30am 23.4 NNW 1 2 1009.1 - 0.0 - - - - - - -
30/05:00am 23.7 NNW 1 2 1009.0 - 0.0 - - - - - - -
30/04:30am 23.5 NNW 1 2 1008.9 - 0.0 - - - - - - -
30/04:00am 23.8 CALM 0 0 1008.9 - 0.0 - - - - - - -
30/03:30am 24.2 CALM 0 0 1009.1 - 0.0 - - - - - - -
30/03:00am 24.4 CALM 0 0 1009.5 - 0.0 - - - - - - -
30/02:30am 25.3 NNE 1 2 1009.5 - 0.0 - - - - - - -
30/02:00am 26.1 CALM 0 1 1009.6 - 0.0 - - - - - - -
30/01:30am 26.6 N 2 3 1009.9 - 0.0 - - - - - - -
30/01:00am 27.3 N 3 4 1010.2 - 0.0 - - - - - - -
30/12:30am 27.6 N 2 5 1010.5 - 0.0 - - - - - - -
30/12:00am 27.9 NNW 3 5 1010.5 - 0.0 - - - - - - -
 
Date/Time
CST
Temp

°C
Wind Pressure Rain
since 9am
mm
Weather Cloud Vis
km
Sea
Height
m
Swell
Dir
 
Speed
knots
Gust
knots
hPa Trend Height
m
Period
s
Dir
29/11:30pm 28.2 NNW 3 6 1010.7 - 0.0 - - - - - - -
29/11:00pm 28.4 NW 3 5 1010.7 - 0.0 - - - - - - -
29/10:30pm 28.6 NW 4 7 1010.7 - 0.0 - - - - - - -
29/10:00pm 28.8 WNW 4 9 1010.6 - 0.0 - - - - - - -
29/09:30pm 28.8 WNW 4 7 1010.4 - 0.0 - - - - - - -
29/09:00pm 28.8 WNW 4 7 1010.0 - 0.0 - - - - - - -
29/08:30pm 28.9 WNW 4 6 1009.9 - 0.0 - - - - - - -
29/08:00pm 28.8 W 5 8 1009.5 - 0.0 - - - - - - -
29/07:30pm 28.7 W 4 8 1009.2 - 0.0 - - - - - - -
29/07:00pm 28.6 W 5 9 1009.2 - 0.0 - - - - - - -
29/06:30pm 28.9 WNW 4 8 1009.1 - 0.0 - - - - - - -
29/06:00pm 29.5 WNW 4 8 1008.9 - 0.0 - - - - - - -
29/05:30pm 30.0 WNW 5 9 1008.7 - 0.0 - - - - - - -
29/05:00pm 30.3 WNW 6 10 1008.6 - 0.0 - - - - - - -
29/04:30pm 30.4 NW 6 11 1008.5 - 0.0 - - - - - - -
29/04:00pm 30.8 WNW 6 12 1008.7 - 0.0 - - - - - - -
29/03:30pm 31.0 WNW 6 9 1008.9 - 0.0 - - - - - - -
29/03:00pm 31.6 W 6 11 1009.0 - 0.0 - - - - - - -
29/02:30pm 31.2 NW 7 10 1009.3 - 0.0 - - - - - - -
29/02:00pm 31.4 WNW 7 10 1009.8 - 0.0 - - - - - - -
29/01:30pm 31.7 NW 7 12 1010.2 - 0.0 - - - - - - -
29/01:00pm 32.0 NNW 6 12 1010.7 - 0.0 - - - - - - -
29/12:30pm 31.6 NW 7 12 1011.2 - 0.0 - - - - - - -
29/12:00pm 31.5 NW 7 12 1011.8 - 0.0 - - - - - - -
29/11:30am 32.4 NW 5 8 1012.1 - 0.0 - - - - - - -
29/11:00am 31.2 WSW 5 11 1012.5 - 0.0 - - - - - - -
29/10:30am 31.9 ENE 4 6 1013.0 - 0.0 - - - - - - -
29/10:00am 30.8 S 4 7 1012.9 - 0.0 - - - - - - -
29/09:30am 30.9 N 3 6 1012.8 - 0.0 - - - - - - -
29/09:00am 31.2 ENE 3 7 1012.6 - 0.0 - - - - - - -
29/08:30am 29.2 N 4 7 1012.4 - 0.0 - - - - - - -
29/08:00am 29.2 NNE 4 6 1012.2 - 0.0 - - - - - - -
29/07:30am 28.4 NE 3 5 1012.1 - 0.0 - - - - - - -
29/07:00am 27.0 NE 1 2 1011.7 - 0.0 - - - - - - -
29/06:30am 26.2 NE 1 2 1011.3 - 0.0 - - - - - - -
29/06:00am 26.6 NNE 1 2 1010.9 - 0.0 - - - - - - -
29/05:30am 27.0 N 3 5 1010.5 - 0.0 - - - - - - -
29/05:00am 27.0 N 3 4 1010.2 - 0.0 - - - - - - -
29/04:30am 27.1 N 2 5 1009.9 - 0.0 - - - - - - -
29/04:00am 27.1 N 3 5 1009.7 - 0.0 - - - - - - -

Other Formats:

Comma delimited format used in spreadsheet applications
http://www.bom.gov.au/fwo/IDD60701/IDD60701.94116.axf

JavaScript Object Notation format (JSON) in row-major order
http://www.bom.gov.au/fwo/IDD60701/IDD60701.94116.json